createdAt,value
2018-09-12T00:02:00.067Z,99.90
2018-09-12T00:06:54.808Z,99.90
2018-09-12T00:11:49.559Z,99.90
2018-09-12T00:16:44.198Z,99.90
2018-09-12T00:21:38.875Z,99.90
2018-09-12T00:42:48.003Z,99.90
2018-09-12T00:47:42.618Z,99.90
2018-09-12T00:52:37.322Z,99.90
2018-09-12T00:57:31.941Z,99.90
2018-09-12T01:02:26.903Z,99.90
2018-09-12T01:07:21.533Z,99.90
2018-09-12T01:12:16.227Z,99.90
2018-09-12T01:33:25.588Z,99.90
2018-09-12T01:38:20.150Z,99.90
2018-09-12T01:43:14.800Z,99.90
2018-09-12T01:48:09.423Z,99.90
2018-09-12T01:53:04.066Z,99.90
2018-09-12T01:57:58.732Z,99.90
2018-09-12T02:02:53.395Z,99.90
2018-09-12T02:24:03.806Z,99.90
2018-09-12T02:28:58.408Z,99.90
2018-09-12T02:33:53.076Z,99.90
2018-09-12T02:38:47.792Z,99.90
2018-09-12T02:43:42.456Z,99.90
2018-09-12T02:48:37.112Z,99.90
2018-09-12T02:53:31.715Z,99.90
2018-09-12T03:14:40.990Z,99.90
2018-09-12T03:19:35.721Z,99.90
2018-09-12T03:24:30.440Z,99.90
2018-09-12T03:29:25.115Z,99.90
2018-09-12T03:34:19.722Z,99.90
2018-09-12T03:39:14.401Z,99.90
2018-09-12T03:44:09.698Z,99.90
2018-09-12T04:05:19.698Z,99.90
2018-09-12T04:10:14.395Z,99.90
2018-09-12T04:15:09.113Z,99.90
2018-09-12T04:20:04.451Z,99.90
2018-09-12T04:24:59.219Z,99.90
2018-09-12T04:29:54.446Z,99.90
2018-09-12T04:34:49.468Z,99.90
2018-09-12T04:55:59.358Z,99.90
2018-09-12T05:00:54.107Z,99.90
2018-09-12T05:05:49.067Z,99.90
2018-09-12T05:10:43.927Z,99.90
2018-09-12T05:15:39.372Z,99.90
2018-09-12T05:20:34.084Z,99.90
2018-09-12T05:25:28.865Z,99.90
2018-09-12T05:46:38.272Z,99.90
2018-09-12T05:51:32.770Z,99.90
2018-09-12T05:56:27.385Z,99.90
2018-09-12T06:01:21.930Z,99.90
2018-09-12T06:06:16.443Z,99.90
2018-09-12T06:11:10.956Z,99.90
2018-09-12T06:16:10.979Z,99.90
2018-09-12T06:37:22.577Z,99.70
2018-09-12T06:42:20.675Z,99.60
2018-09-12T06:47:15.658Z,99.60
2018-09-12T06:52:10.803Z,99.90
2018-09-12T06:57:06.972Z,99.90
2018-09-12T07:02:02.058Z,99.90
2018-09-12T07:06:58.201Z,99.90
2018-09-12T07:28:10.332Z,99.90
2018-09-12T07:33:06.019Z,99.90
2018-09-12T07:38:01.304Z,99.90
2018-09-12T07:42:59.088Z,99.90
2018-09-12T07:47:54.606Z,99.90
2018-09-12T07:52:49.853Z,99.90
2018-09-12T07:57:45.078Z,99.90
2018-09-12T08:18:56.006Z,99.90
2018-09-12T08:24:08.136Z,99.90
2018-09-12T08:29:35.347Z,99.90
2018-09-12T08:34:34.314Z,99.90
2018-09-12T08:39:32.023Z,99.60
2018-09-12T08:44:33.757Z,99.20
2018-09-12T09:05:44.216Z,97.80
2018-09-12T09:10:38.900Z,98.40
2018-09-12T09:15:33.517Z,98.80
2018-09-12T09:20:30.218Z,98.70
2018-09-12T09:25:26.279Z,98.60
2018-09-12T09:30:27.067Z,99.20
2018-09-12T09:35:23.539Z,99.50
2018-09-12T09:56:32.295Z,98.80
2018-09-12T10:01:42.387Z,98.80
2018-09-12T10:06:51.731Z,98.60
2018-09-12T10:12:02.789Z,99.30
2018-09-12T10:17:18.254Z,98.70
2018-09-12T10:22:13.562Z,98.30
2018-09-12T10:27:08.097Z,97.50
2018-09-12T10:48:40.244Z,97.90
2018-09-12T10:53:35.489Z,98.30
2018-09-12T10:58:30.413Z,97.90
2018-09-12T11:03:35.043Z,98.00
2018-09-12T11:08:30.152Z,98.10
2018-09-12T11:13:39.614Z,97.90
2018-09-12T11:18:34.676Z,97.70
2018-09-12T11:39:44.184Z,97.10
2018-09-12T11:44:38.701Z,96.90
2018-09-12T11:49:33.303Z,97.20
2018-09-12T11:55:01.289Z,97.00
2018-09-12T12:00:18.377Z,96.70
2018-09-12T12:05:36.734Z,96.40
2018-09-12T12:26:54.026Z,95.60
2018-09-12T12:31:50.709Z,95.70
2018-09-12T12:36:50.621Z,95.50
2018-09-12T12:41:55.035Z,95.20
2018-09-12T12:46:52.499Z,94.70
2018-09-12T12:51:48.485Z,94.80
2018-09-12T12:56:45.279Z,94.40
2018-09-12T13:17:54.421Z,93.30
2018-09-12T13:22:49.235Z,92.80
2018-09-12T13:27:44.220Z,93.10
2018-09-12T13:32:39.104Z,93.40
2018-09-12T13:37:33.579Z,93.50
2018-09-12T13:42:28.313Z,93.50
2018-09-12T13:47:23.706Z,94.00
2018-09-12T14:08:33.853Z,92.90
2018-09-12T14:13:47.366Z,92.70
2018-09-12T14:18:42.339Z,92.30
2018-09-12T14:23:37.065Z,91.90
2018-09-12T14:28:33.036Z,91.90
2018-09-12T14:33:27.956Z,91.50
2018-09-12T14:38:22.636Z,92.30
2018-09-12T14:59:32.103Z,92.50
2018-09-12T15:04:26.698Z,92.80
2018-09-12T15:09:21.762Z,92.40
2018-09-12T15:14:16.649Z,92.30
2018-09-12T15:19:11.342Z,92.00
2018-09-12T15:24:05.953Z,91.90
2018-09-12T15:29:00.730Z,91.50
2018-09-12T15:50:10.443Z,91.00
2018-09-12T15:55:05.028Z,91.80
2018-09-12T15:59:59.569Z,91.60
2018-09-12T16:04:54.220Z,91.90
2018-09-12T16:09:48.779Z,92.10
2018-09-12T16:14:43.273Z,92.20
2018-09-12T16:19:37.845Z,92.10
2018-09-12T16:40:47.598Z,90.10
2018-09-12T16:45:42.078Z,90.10
2018-09-12T16:50:36.813Z,91.00
2018-09-12T16:55:31.336Z,90.70
2018-09-12T17:00:26.542Z,90.70
2018-09-12T17:05:21.513Z,90.20
2018-09-12T17:16:08.350Z,90.00
2018-09-12T17:21:03.718Z,90.40
2018-09-12T17:25:58.337Z,91.10
2018-09-12T17:30:52.920Z,92.00
2018-09-12T17:35:47.749Z,92.40
2018-09-12T17:40:42.369Z,93.00
2018-09-12T17:45:36.908Z,93.30
2018-09-12T17:50:31.724Z,93.90
2018-09-12T17:55:26.821Z,94.90
2018-09-12T18:00:21.405Z,96.40
2018-09-12T18:05:15.988Z,97.20
2018-09-12T18:10:10.925Z,97.50
2018-09-12T18:15:05.946Z,97.80
2018-09-12T18:20:00.494Z,98.30
2018-09-12T18:24:55.046Z,99.90
2018-09-12T18:29:49.617Z,99.90
2018-09-12T18:34:44.281Z,99.90
2018-09-12T18:39:39.142Z,99.90
2018-09-12T18:44:33.717Z,99.90
2018-09-12T18:49:28.429Z,99.90
2018-09-12T18:54:23.218Z,99.90
2018-09-12T18:59:17.784Z,99.90
2018-09-12T19:04:12.343Z,99.90
2018-09-12T19:09:10.242Z,99.90
2018-09-12T19:14:05.020Z,99.90
2018-09-12T19:18:59.561Z,99.90
2018-09-12T19:23:54.144Z,99.90
2018-09-12T19:28:48.729Z,99.90
2018-09-12T19:33:43.309Z,99.90
2018-09-12T19:38:37.909Z,99.90
2018-09-12T19:43:32.502Z,99.90
2018-09-12T19:48:27.082Z,99.90
2018-09-12T19:53:21.666Z,99.90
2018-09-12T19:58:16.332Z,99.90
2018-09-12T20:03:10.872Z,99.90
2018-09-12T20:08:05.735Z,99.90
2018-09-12T20:13:00.381Z,99.90
2018-09-12T20:17:55.029Z,99.90
2018-09-12T20:22:49.588Z,99.90
2018-09-12T20:27:44.564Z,99.90
2018-09-12T20:32:39.084Z,99.90
2018-09-12T20:37:33.668Z,99.90
2018-09-12T20:42:28.162Z,99.90
2018-09-12T20:47:22.717Z,99.90
2018-09-12T20:52:17.421Z,99.90
2018-09-12T20:57:11.978Z,99.90
2018-09-12T21:02:06.761Z,99.90
2018-09-12T21:07:01.368Z,99.90
2018-09-12T21:11:56.231Z,99.90
2018-09-12T21:16:50.805Z,99.90
2018-09-12T21:21:45.336Z,99.90
2018-09-12T21:26:39.873Z,99.90
2018-09-12T21:31:34.416Z,99.90
2018-09-12T21:36:28.960Z,99.90
2018-09-12T21:41:23.772Z,99.90
2018-09-12T21:46:18.449Z,99.90
2018-09-12T21:51:13.012Z,99.90
2018-09-12T21:56:07.607Z,99.90
2018-09-12T22:01:02.181Z,99.90
2018-09-12T22:05:56.719Z,99.90
2018-09-12T22:10:51.287Z,99.90
2018-09-12T22:15:45.777Z,99.90
2018-09-12T22:20:40.306Z,99.90
2018-09-12T22:25:34.864Z,99.90
2018-09-12T22:30:29.396Z,99.90
2018-09-12T22:35:23.926Z,99.90
2018-09-12T22:40:18.476Z,99.90
2018-09-12T22:45:13.061Z,99.90
2018-09-12T22:50:07.851Z,99.90
2018-09-12T22:55:02.393Z,99.90
2018-09-12T22:59:56.953Z,99.90
2018-09-12T23:04:51.497Z,99.90
2018-09-12T23:09:46.043Z,99.90
2018-09-12T23:14:40.553Z,99.90
2018-09-12T23:19:35.061Z,99.90
2018-09-12T23:24:29.607Z,99.90
2018-09-12T23:29:24.265Z,99.90
2018-09-12T23:34:18.849Z,99.90
2018-09-12T23:39:14.540Z,99.90
2018-09-12T23:44:09.324Z,99.90
2018-09-12T23:49:03.881Z,99.90
2018-09-12T23:53:58.417Z,99.90
2018-09-12T23:58:52.950Z,99.90
